createdAt,value
2023-01-13T00:01:38.488Z,10.84
2023-01-13T00:04:05.271Z,10.85
2023-01-13T00:06:31.976Z,11.11
2023-01-13T00:08:58.671Z,10.86
2023-01-13T00:11:26.448Z,10.61
2023-01-13T00:13:53.924Z,10.69
2023-01-13T00:16:21.164Z,10.74
2023-01-13T00:18:48.962Z,10.70
2023-01-13T00:21:18.657Z,10.75
2023-01-13T00:23:46.057Z,11.15
2023-01-13T00:26:18.987Z,10.97
2023-01-13T00:28:46.187Z,10.82
2023-01-13T00:31:17.836Z,10.72
2023-01-13T00:33:44.556Z,10.71
2023-01-13T00:36:13.600Z,10.65
2023-01-13T00:38:40.527Z,10.66
2023-01-13T00:41:09.256Z,10.62
2023-01-13T00:43:36.907Z,10.69
2023-01-13T00:46:06.156Z,10.66
2023-01-13T00:48:33.451Z,10.83
2023-01-13T00:51:05.254Z,10.68
2023-01-13T00:53:37.233Z,10.68
2023-01-13T00:56:09.809Z,10.71
2023-01-13T00:58:36.447Z,10.87
2023-01-13T01:01:05.997Z,10.60
2023-01-13T01:03:33.272Z,10.63
2023-01-13T01:06:26.718Z,10.58
2023-01-13T01:08:54.594Z,10.75
2023-01-13T01:11:23.413Z,10.79
2023-01-13T01:13:52.588Z,10.95
2023-01-13T01:16:21.163Z,10.78
2023-01-13T01:18:49.672Z,10.94
2023-01-13T01:21:17.307Z,10.98
2023-01-13T01:23:44.308Z,10.94
2023-01-13T01:26:20.365Z,11.18
2023-01-13T01:28:47.442Z,11.02
2023-01-13T01:31:34.403Z,10.82
2023-01-13T01:34:01.617Z,10.95
2023-01-13T01:36:30.205Z,10.96
2023-01-13T01:38:58.702Z,10.83
2023-01-13T01:41:27.308Z,11.11
2023-01-13T01:43:59.302Z,10.95
2023-01-13T01:46:27.236Z,11.10
2023-01-13T01:48:56.740Z,11.02
2023-01-13T01:51:23.492Z,10.95
2023-01-13T01:53:50.690Z,10.86
2023-01-13T01:56:18.027Z,10.82
2023-01-13T01:58:47.596Z,10.85
2023-01-13T02:01:14.867Z,10.93
2023-01-13T02:03:46.019Z,10.81
2023-01-13T02:06:13.563Z,10.75
2023-01-13T02:08:40.945Z,10.89
2023-01-13T02:11:27.833Z,10.70
2023-01-13T02:13:54.840Z,10.96
2023-01-13T02:16:24.448Z,11.00
2023-01-13T02:19:09.571Z,10.99
2023-01-13T02:21:39.063Z,10.96
2023-01-13T02:24:56.472Z,10.94
2023-01-13T02:27:58.150Z,10.95
2023-01-13T02:30:58.060Z,10.97
2023-01-13T02:33:44.444Z,10.97
2023-01-13T02:36:30.489Z,10.68
2023-01-13T02:39:01.754Z,11.19
2023-01-13T02:41:53.272Z,11.11
2023-01-13T02:44:25.993Z,11.24
2023-01-13T02:46:56.877Z,11.15
2023-01-13T02:49:39.968Z,11.06
2023-01-13T02:52:17.788Z,11.17
2023-01-13T02:54:46.983Z,10.99
2023-01-13T02:57:15.136Z,10.93
2023-01-13T02:59:42.587Z,10.86
2023-01-13T03:02:12.828Z,11.02
2023-01-13T03:05:10.807Z,11.06
2023-01-13T03:07:47.266Z,11.00
2023-01-13T03:10:28.347Z,11.01
2023-01-13T03:13:13.854Z,11.30
2023-01-13T03:16:04.580Z,10.89
2023-01-13T03:18:42.989Z,11.08
2023-01-13T03:21:12.443Z,10.97
2023-01-13T03:23:58.022Z,10.77
2023-01-13T03:26:32.368Z,10.87
2023-01-13T03:29:09.437Z,10.97
2023-01-13T03:31:42.842Z,11.03
2023-01-13T03:34:16.315Z,11.15
2023-01-13T03:36:44.392Z,10.97
2023-01-13T03:39:11.613Z,10.74
2023-01-13T03:41:43.505Z,10.74
2023-01-13T03:44:24.939Z,10.75
2023-01-13T03:46:58.184Z,10.72
2023-01-13T03:49:28.033Z,10.60
2023-01-13T03:52:01.329Z,10.86
2023-01-13T03:54:31.164Z,10.78
2023-01-13T03:57:02.513Z,10.86
2023-01-13T03:59:36.367Z,10.68
2023-01-13T04:02:35.182Z,10.62
2023-01-13T04:05:04.293Z,10.77
2023-01-13T04:07:48.112Z,10.67
2023-01-13T04:10:19.457Z,10.56
2023-01-13T04:13:03.092Z,10.80
2023-01-13T04:15:36.557Z,10.68
2023-01-13T04:18:10.112Z,10.80
2023-01-13T04:20:36.688Z,10.77
2023-01-13T04:23:03.834Z,10.61
2023-01-13T04:25:30.335Z,10.61
2023-01-13T04:27:57.134Z,10.85
2023-01-13T04:30:23.719Z,10.71
2023-01-13T04:32:50.250Z,11.00
2023-01-13T04:35:17.068Z,10.88
2023-01-13T04:37:43.618Z,11.13
2023-01-13T04:40:10.645Z,10.84
2023-01-13T04:42:37.187Z,10.91
2023-01-13T04:45:03.959Z,10.74
2023-01-13T04:47:30.495Z,10.90
2023-01-13T04:49:57.091Z,10.93
2023-01-13T04:52:23.619Z,11.06
2023-01-13T04:54:50.124Z,11.25
2023-01-13T04:57:16.906Z,10.90
2023-01-13T04:59:43.447Z,10.96
2023-01-13T05:02:10.153Z,10.91
2023-01-13T05:04:36.705Z,11.10
2023-01-13T05:07:03.310Z,11.07
2023-01-13T05:09:29.848Z,10.93
2023-01-13T05:12:14.966Z,10.88
2023-01-13T05:15:00.271Z,11.18
2023-01-13T05:17:27.166Z,10.89
2023-01-13T05:19:53.669Z,11.16
2023-01-13T05:22:38.563Z,11.05
2023-01-13T05:25:25.304Z,10.93
2023-01-13T05:27:57.250Z,11.05
2023-01-13T05:30:26.100Z,10.87
2023-01-13T05:32:52.731Z,11.12
2023-01-13T05:35:19.591Z,11.07
2023-01-13T05:37:46.767Z,11.16
2023-01-13T05:40:34.535Z,11.03
2023-01-13T05:43:19.819Z,11.18
2023-01-13T05:45:56.160Z,11.17
2023-01-13T05:48:24.168Z,11.06
2023-01-13T05:50:50.606Z,11.18
2023-01-13T05:53:17.833Z,11.11
2023-01-13T05:55:45.286Z,11.12
2023-01-13T05:58:13.781Z,10.98
2023-01-13T06:00:41.905Z,10.71
2023-01-13T06:03:08.914Z,10.66
2023-01-13T06:05:35.590Z,10.91
2023-01-13T06:08:03.878Z,10.92
2023-01-13T06:10:30.476Z,10.68
2023-01-13T06:12:57.005Z,10.82
2023-01-13T06:15:24.491Z,10.97
2023-01-13T06:17:51.157Z,10.96
2023-01-13T06:20:18.391Z,10.98
2023-01-13T06:22:49.778Z,11.10
2023-01-13T06:25:28.509Z,11.00
2023-01-13T06:27:56.653Z,10.82
2023-01-13T06:30:23.176Z,11.28
2023-01-13T06:32:52.747Z,11.22
2023-01-13T06:35:23.740Z,11.03
2023-01-13T06:37:51.935Z,11.20
2023-01-13T06:40:18.662Z,10.94
2023-01-13T06:43:03.998Z,10.80
2023-01-13T06:45:31.379Z,10.93
2023-01-13T06:47:59.535Z,10.55
2023-01-13T06:50:27.961Z,10.87
2023-01-13T06:52:54.616Z,10.89
2023-01-13T06:55:21.174Z,10.76
2023-01-13T06:57:48.484Z,10.61
2023-01-13T07:00:15.845Z,11.03
2023-01-13T07:02:42.470Z,10.66
2023-01-13T07:05:09.155Z,10.74
2023-01-13T07:07:35.913Z,11.01
2023-01-13T07:10:03.339Z,10.62
2023-01-13T07:12:29.866Z,10.72
2023-01-13T07:15:15.280Z,10.66
2023-01-13T07:17:41.816Z,10.85
2023-01-13T07:20:08.835Z,10.70
2023-01-13T07:22:35.355Z,10.87
2023-01-13T07:25:02.186Z,10.65
2023-01-13T07:27:28.699Z,10.71
2023-01-13T07:29:55.313Z,10.99
2023-01-13T07:32:21.853Z,10.60
2023-01-13T07:34:48.749Z,10.87
2023-01-13T07:37:15.290Z,10.83
2023-01-13T07:39:42.199Z,11.03
2023-01-13T07:42:27.975Z,11.25
2023-01-13T07:44:54.576Z,10.79
2023-01-13T07:47:23.320Z,10.84
2023-01-13T07:49:49.963Z,10.84
2023-01-13T07:52:16.475Z,10.55
2023-01-13T07:54:43.062Z,10.52
2023-01-13T07:57:10.067Z,10.81
2023-01-13T07:59:37.119Z,10.91
2023-01-13T08:02:04.247Z,10.91
2023-01-13T08:04:30.987Z,10.70
2023-01-13T08:06:57.516Z,10.84
2023-01-13T08:09:24.081Z,10.78
2023-01-13T08:12:14.297Z,11.29
2023-01-13T08:14:40.807Z,11.00
2023-01-13T08:17:09.049Z,11.17
2023-01-13T08:19:35.725Z,11.33
2023-01-13T08:22:02.303Z,11.25
2023-01-13T08:24:28.838Z,11.02
2023-01-13T08:26:55.316Z,11.01
2023-01-13T08:29:21.876Z,10.89
2023-01-13T08:31:48.406Z,11.05
2023-01-13T08:34:14.943Z,11.01
2023-01-13T08:36:41.456Z,10.93
2023-01-13T08:39:08.083Z,11.01
2023-01-13T08:41:53.175Z,11.14
2023-01-13T08:44:19.795Z,11.06
2023-01-13T08:46:46.437Z,10.40
2023-01-13T08:49:13.028Z,10.74
2023-01-13T08:51:39.587Z,10.69
2023-01-13T08:54:06.137Z,10.66
2023-01-13T08:56:35.317Z,10.49
2023-01-13T08:59:02.328Z,10.35
2023-01-13T09:01:29.017Z,10.25
2023-01-13T09:03:55.971Z,9.73
2023-01-13T09:06:22.784Z,9.78
2023-01-13T09:08:49.724Z,10.02
2023-01-13T09:11:40.673Z,10.27
2023-01-13T09:14:07.244Z,9.20
2023-01-13T09:16:33.776Z,9.53
2023-01-13T09:19:00.569Z,8.64
2023-01-13T09:21:27.287Z,8.62
2023-01-13T09:23:53.886Z,8.58
2023-01-13T09:26:21.346Z,8.81
2023-01-13T09:28:48.070Z,8.63
2023-01-13T09:31:14.815Z,8.57
2023-01-13T09:33:59.743Z,8.81
2023-01-13T09:36:26.431Z,8.85
2023-01-13T09:38:53.016Z,9.06
2023-01-13T09:41:40.312Z,8.94
2023-01-13T09:44:11.699Z,9.05
2023-01-13T09:46:47.276Z,8.83
2023-01-13T09:49:22.296Z,9.23
2023-01-13T09:52:09.617Z,9.40
2023-01-13T09:54:42.942Z,9.54
2023-01-13T09:57:11.633Z,9.52
2023-01-13T09:59:38.724Z,9.99
2023-01-13T10:02:30.927Z,9.84
2023-01-13T10:05:22.065Z,9.83
2023-01-13T10:07:52.464Z,9.70
2023-01-13T10:10:32.338Z,9.19
2023-01-13T10:13:14.240Z,9.45
2023-01-13T10:15:46.953Z,9.31
2023-01-13T10:18:52.573Z,9.14
2023-01-13T10:21:43.802Z,9.73
2023-01-13T10:24:22.321Z,9.49
2023-01-13T10:27:04.169Z,9.41
2023-01-13T10:29:31.316Z,9.34
2023-01-13T10:31:59.360Z,9.17
2023-01-13T10:34:27.979Z,9.58
2023-01-13T10:37:03.358Z,9.75
2023-01-13T10:39:39.928Z,9.47
2023-01-13T10:42:11.058Z,9.40
2023-01-13T10:44:56.413Z,9.54
2023-01-13T10:47:36.786Z,9.65
2023-01-13T10:50:19.903Z,9.91
2023-01-13T10:53:01.489Z,9.52
2023-01-13T10:55:37.057Z,8.83
2023-01-13T10:58:17.339Z,8.61
2023-01-13T11:00:44.017Z,8.59
2023-01-13T11:03:16.708Z,9.08
2023-01-13T11:05:55.036Z,9.12
2023-01-13T11:08:27.012Z,8.88
2023-01-13T11:10:57.959Z,8.82
2023-01-13T11:13:36.076Z,8.80
2023-01-13T11:16:12.594Z,8.79
2023-01-13T11:19:11.970Z,8.72
2023-01-13T11:22:12.624Z,8.40
2023-01-13T11:24:44.853Z,8.56
2023-01-13T11:27:26.597Z,8.48
2023-01-13T11:30:43.880Z,8.72
2023-01-13T11:33:10.421Z,8.97
2023-01-13T11:36:02.122Z,8.60
2023-01-13T11:38:48.162Z,8.64
2023-01-13T11:41:20.421Z,8.79
2023-01-13T11:44:24.203Z,8.81
2023-01-13T11:46:51.601Z,8.91
2023-01-13T11:49:29.969Z,8.97
2023-01-13T11:52:26.898Z,9.29
2023-01-13T11:54:53.515Z,9.22
2023-01-13T11:57:37.520Z,9.23
2023-01-13T12:00:17.892Z,8.88
2023-01-13T12:03:01.525Z,9.35
2023-01-13T12:05:40.584Z,9.24
2023-01-13T12:08:18.245Z,9.75
2023-01-13T12:11:17.661Z,9.95
2023-01-13T12:14:06.661Z,9.97
2023-01-13T12:16:33.603Z,9.83
2023-01-13T12:19:00.099Z,10.03
2023-01-13T12:21:32.742Z,10.01
2023-01-13T12:24:18.837Z,9.79
2023-01-13T12:26:59.169Z,9.79
2023-01-13T12:29:31.509Z,10.00
2023-01-13T12:32:00.562Z,9.91
2023-01-13T12:34:41.817Z,9.92
2023-01-13T12:37:31.363Z,10.17
2023-01-13T12:40:38.834Z,10.35
2023-01-13T12:43:50.449Z,10.28
2023-01-13T12:46:21.380Z,10.04
2023-01-13T12:48:57.328Z,10.08
2023-01-13T12:51:35.824Z,10.19
2023-01-13T12:54:06.815Z,9.02
2023-01-13T12:56:46.353Z,9.03
2023-01-13T12:59:19.368Z,8.97
2023-01-13T13:01:48.782Z,9.22
2023-01-13T13:04:47.553Z,9.85
2023-01-13T13:07:19.102Z,9.44
2023-01-13T13:09:58.236Z,9.17
2023-01-13T13:12:49.736Z,10.06
2023-01-13T13:15:26.485Z,10.19
2023-01-13T13:17:59.293Z,9.99
2023-01-13T13:20:51.021Z,9.77
2023-01-13T13:23:33.005Z,9.98
2023-01-13T13:26:21.810Z,9.77
2023-01-13T13:29:20.700Z,9.65
2023-01-13T13:32:19.682Z,9.75
2023-01-13T13:35:14.234Z,10.34
2023-01-13T13:38:17.022Z,10.27
2023-01-13T13:41:04.684Z,9.75
2023-01-13T13:44:02.539Z,10.23
2023-01-13T13:46:47.258Z,9.81
2023-01-13T13:49:41.612Z,9.93
2023-01-13T13:52:45.881Z,10.27
2023-01-13T13:55:17.358Z,10.66
2023-01-13T13:57:47.195Z,10.10
2023-01-13T14:00:30.834Z,10.07
2023-01-13T14:03:06.132Z,10.12
2023-01-13T14:05:36.496Z,9.70
2023-01-13T14:08:09.046Z,10.19
2023-01-13T14:10:38.142Z,9.88
2023-01-13T14:13:17.768Z,10.11
2023-01-13T14:15:45.677Z,9.48
2023-01-13T14:18:14.439Z,9.41
2023-01-13T14:20:42.588Z,9.59
2023-01-13T14:23:17.073Z,9.04
2023-01-13T14:25:51.582Z,8.72
2023-01-13T14:28:26.733Z,8.54
2023-01-13T14:30:54.368Z,8.56
2023-01-13T14:33:39.122Z,8.92
2023-01-13T14:36:18.075Z,8.69
2023-01-13T14:38:50.236Z,8.74
2023-01-13T14:41:20.728Z,8.76
2023-01-13T14:43:48.633Z,9.03
2023-01-13T14:46:17.633Z,8.74
2023-01-13T14:48:47.595Z,8.71
2023-01-13T14:51:22.412Z,8.43
2023-01-13T14:53:49.360Z,8.73
2023-01-13T14:56:42.626Z,8.59
2023-01-13T14:59:31.809Z,8.40
2023-01-13T15:01:58.872Z,8.35
2023-01-13T15:04:34.102Z,8.35
2023-01-13T15:07:01.377Z,8.26
2023-01-13T15:09:38.875Z,8.47
2023-01-13T15:12:17.742Z,8.33
2023-01-13T15:14:44.622Z,8.39
2023-01-13T15:17:16.160Z,8.48
2023-01-13T15:19:42.726Z,8.43
2023-01-13T15:22:09.272Z,7.85
2023-01-13T15:24:35.947Z,8.20
2023-01-13T15:27:04.749Z,8.39
2023-01-13T15:29:31.440Z,8.25
2023-01-13T15:31:57.983Z,8.19
2023-01-13T15:34:24.754Z,8.04
2023-01-13T15:36:51.273Z,7.97
2023-01-13T15:39:17.908Z,7.94
2023-01-13T15:42:02.937Z,7.90
2023-01-13T15:44:48.070Z,8.11
2023-01-13T15:47:14.807Z,7.71
2023-01-13T15:49:44.074Z,7.94
2023-01-13T15:52:21.551Z,8.07
2023-01-13T15:54:49.334Z,8.39
2023-01-13T15:57:24.221Z,7.97
2023-01-13T15:59:53.823Z,8.22
2023-01-13T16:02:22.557Z,7.96
2023-01-13T16:04:51.269Z,8.22
2023-01-13T16:07:18.732Z,7.96
2023-01-13T16:09:45.612Z,7.69
2023-01-13T16:12:12.753Z,8.29
2023-01-13T16:14:39.876Z,7.83
2023-01-13T16:17:20.614Z,7.91
2023-01-13T16:19:47.697Z,7.88
2023-01-13T16:22:15.697Z,8.16
2023-01-13T16:24:42.495Z,8.04
2023-01-13T16:27:17.114Z,7.97
2023-01-13T16:29:43.742Z,8.11
2023-01-13T16:32:10.279Z,7.55
2023-01-13T16:34:36.973Z,7.95
2023-01-13T16:37:03.924Z,7.81
2023-01-13T16:39:31.025Z,7.59
2023-01-13T16:41:57.622Z,7.63
2023-01-13T16:44:24.222Z,7.96
2023-01-13T16:46:50.879Z,8.15
2023-01-13T16:49:18.224Z,8.06
2023-01-13T16:51:44.782Z,8.08
2023-01-13T16:54:12.203Z,7.92
2023-01-13T16:56:38.737Z,7.76
2023-01-13T16:59:16.044Z,7.85
2023-01-13T17:01:44.671Z,7.63
2023-01-13T17:04:19.761Z,7.65
2023-01-13T17:07:01.029Z,7.57
2023-01-13T17:09:28.832Z,7.40
2023-01-13T17:11:55.728Z,7.38
2023-01-13T17:18:40.688Z,7.33
2023-01-13T17:21:07.366Z,7.22
2023-01-13T17:26:37.323Z,7.32
2023-01-13T17:29:10.712Z,7.41
2023-01-13T17:31:37.528Z,7.56
2023-01-13T17:34:04.927Z,7.50
2023-01-13T17:36:32.640Z,7.41
2023-01-13T17:38:59.417Z,7.22
2023-01-13T17:41:31.442Z,7.20
2023-01-13T17:44:23.984Z,6.99
2023-01-13T17:46:54.791Z,7.45
2023-01-13T17:49:22.796Z,7.51
2023-01-13T17:51:51.072Z,7.42
2023-01-13T17:54:18.142Z,7.57
2023-01-13T17:56:44.834Z,7.64
2023-01-13T17:59:15.385Z,7.63
2023-01-13T18:01:42.311Z,7.61
2023-01-13T18:04:21.304Z,7.97
2023-01-13T18:06:48.911Z,8.05
2023-01-13T18:09:42.699Z,8.03
2023-01-13T18:12:09.241Z,8.06
2023-01-13T18:14:35.799Z,8.06
2023-01-13T18:17:02.418Z,7.98
2023-01-13T18:20:07.471Z,8.13
2023-01-13T18:22:52.652Z,7.91
2023-01-13T18:25:37.980Z,7.88
2023-01-13T18:28:04.941Z,8.01
2023-01-13T18:30:31.478Z,7.98
2023-01-13T18:32:58.226Z,8.06
2023-01-13T18:35:24.823Z,7.87
2023-01-13T18:37:52.235Z,7.74
2023-01-13T18:40:19.655Z,8.03
2023-01-13T18:42:52.207Z,7.93
2023-01-13T18:45:24.469Z,7.90
2023-01-13T18:47:51.546Z,8.15
2023-01-13T18:50:18.916Z,8.18
2023-01-13T18:52:45.573Z,8.01
2023-01-13T18:55:12.246Z,8.01
2023-01-13T18:57:39.971Z,8.15
2023-01-13T19:00:09.121Z,8.12
2023-01-13T19:02:35.889Z,8.43
2023-01-13T19:05:02.839Z,8.49
2023-01-13T19:07:31.852Z,8.59
2023-01-13T19:09:59.603Z,8.56
2023-01-13T19:12:27.453Z,8.50
2023-01-13T19:14:55.238Z,8.57
2023-01-13T19:17:22.725Z,8.78
2023-01-13T19:19:52.224Z,8.70
2023-01-13T19:22:37.398Z,8.57
2023-01-13T19:25:05.146Z,8.14
2023-01-13T19:27:32.442Z,8.48
2023-01-13T19:30:00.775Z,8.41
2023-01-13T19:32:28.065Z,8.25
2023-01-13T19:34:56.203Z,8.38
2023-01-13T19:37:22.888Z,8.16
2023-01-13T19:39:49.646Z,8.25
2023-01-13T19:42:34.908Z,8.10
2023-01-13T19:45:20.619Z,7.79
2023-01-13T19:47:47.523Z,8.08
2023-01-13T19:50:14.633Z,7.93
2023-01-13T19:52:44.281Z,8.13
2023-01-13T19:55:12.474Z,8.30
2023-01-13T19:57:40.584Z,8.07
2023-01-13T20:00:09.875Z,8.25
2023-01-13T20:02:46.797Z,8.35
2023-01-13T20:05:17.971Z,8.31
2023-01-13T20:07:44.940Z,8.08
2023-01-13T20:10:13.211Z,8.05
2023-01-13T20:12:39.980Z,8.12
2023-01-13T20:15:07.330Z,8.21
2023-01-13T20:17:35.067Z,8.15
2023-01-13T20:20:04.634Z,8.09
2023-01-13T20:22:31.182Z,8.09
2023-01-13T20:24:57.732Z,8.12
2023-01-13T20:27:24.523Z,8.20
2023-01-13T20:29:55.784Z,7.93
2023-01-13T20:32:22.455Z,7.68
2023-01-13T20:34:49.314Z,8.00
2023-01-13T20:37:15.897Z,7.61
2023-01-13T20:39:48.431Z,7.58
2023-01-13T20:42:30.674Z,7.99
2023-01-13T20:44:59.625Z,7.96
2023-01-13T20:47:27.985Z,8.10
2023-01-13T20:49:54.573Z,8.02
2023-01-13T20:52:21.399Z,7.90
2023-01-13T20:54:49.677Z,6.89
2023-01-13T20:57:17.739Z,6.82
2023-01-13T20:59:46.279Z,6.58
2023-01-13T21:02:15.919Z,7.07
2023-01-13T21:04:42.812Z,6.79
2023-01-13T21:07:09.802Z,6.80
2023-01-13T21:09:36.784Z,7.07
2023-01-13T21:12:29.474Z,6.80
2023-01-13T21:15:14.697Z,6.49
2023-01-13T21:18:13.932Z,6.61
2023-01-13T21:20:40.721Z,6.65
2023-01-13T21:23:11.318Z,6.48
2023-01-13T21:25:39.807Z,6.88
2023-01-13T21:28:07.880Z,7.21
2023-01-13T21:30:34.869Z,7.28
2023-01-13T21:33:03.815Z,6.68
2023-01-13T21:35:33.399Z,7.05
2023-01-13T21:38:03.314Z,7.09
2023-01-13T21:40:30.315Z,6.98
2023-01-13T21:43:15.918Z,7.05
2023-01-13T21:46:11.875Z,7.08
2023-01-13T21:48:38.533Z,7.02
2023-01-13T21:51:05.297Z,7.02
2023-01-13T21:53:35.865Z,6.95
2023-01-13T21:56:05.724Z,6.97
2023-01-13T21:58:35.319Z,7.08
2023-01-13T22:01:02.746Z,7.21
2023-01-13T22:03:29.550Z,7.12
2023-01-13T22:05:56.619Z,7.01
2023-01-13T22:08:23.356Z,6.58
2023-01-13T22:10:59.514Z,6.71
2023-01-13T22:13:47.772Z,6.58
2023-01-13T22:16:15.427Z,6.37
2023-01-13T22:18:42.227Z,6.58
2023-01-13T22:21:09.142Z,6.87
2023-01-13T22:23:35.833Z,6.89
2023-01-13T22:26:09.692Z,6.73
2023-01-13T22:28:43.206Z,6.73
2023-01-13T22:31:15.149Z,6.62
2023-01-13T22:33:47.904Z,6.36
2023-01-13T22:36:15.356Z,6.65
2023-01-13T22:38:42.273Z,6.37
2023-01-13T22:41:09.550Z,6.85
2023-01-13T22:43:37.648Z,6.73
2023-01-13T22:46:24.042Z,7.01
2023-01-13T22:48:53.879Z,7.22
2023-01-13T22:51:25.399Z,7.28
2023-01-13T22:53:57.720Z,7.27
2023-01-13T22:56:26.674Z,7.17
2023-01-13T22:58:54.739Z,7.12
2023-01-13T23:01:23.483Z,7.27
2023-01-13T23:03:50.400Z,7.02
2023-01-13T23:06:21.151Z,7.17
2023-01-13T23:08:50.251Z,6.99
2023-01-13T23:11:18.325Z,7.05
2023-01-13T23:13:44.963Z,6.93
2023-01-13T23:16:18.953Z,6.97
2023-01-13T23:18:56.992Z,6.94
2023-01-13T23:21:26.601Z,6.89
2023-01-13T23:23:58.563Z,6.97
2023-01-13T23:26:38.292Z,6.63
2023-01-13T23:29:08.116Z,6.81
2023-01-13T23:31:37.976Z,6.79
2023-01-13T23:34:08.970Z,6.52
2023-01-13T23:36:41.251Z,6.56
2023-01-13T23:39:10.914Z,6.49
2023-01-13T23:41:40.849Z,6.66
2023-01-13T23:46:48.039Z,6.67
2023-01-13T23:49:16.208Z,6.88
2023-01-13T23:51:42.801Z,6.87
2023-01-13T23:54:09.411Z,7.11
2023-01-13T23:56:39.280Z,7.15
2023-01-13T23:59:06.493Z,7.12
